sensor_id;sensor_type;location;lat;lon;timestamp;temperature;humidity
72576;DHT22;60613;48.658;2.328;2023-02-03T07:02:42;19.90;33.80
72576;DHT22;60613;48.658;2.328;2023-02-03T07:05:08;19.70;35.60
72576;DHT22;60613;48.658;2.328;2023-02-03T07:07:34;19.90;35.90
72576;DHT22;60613;48.658;2.328;2023-02-03T07:10:01;20.10;36.20
72576;DHT22;60613;48.658;2.328;2023-02-03T07:12:26;20.30;36.00
72576;DHT22;60613;48.658;2.328;2023-02-03T07:14:52;20.60;35.70
72576;DHT22;60613;48.658;2.328;2023-02-03T07:17:18;20.70;35.50
72576;DHT22;60613;48.658;2.328;2023-02-03T07:19:44;20.80;35.50
72576;DHT22;60613;48.658;2.328;2023-02-03T07:22:10;21.00;35.20
72576;DHT22;60613;48.658;2.328;2023-02-03T07:24:36;21.00;35.10
72576;DHT22;60613;48.658;2.328;2023-02-03T07:27:01;21.10;35.20
72576;DHT22;60613;48.658;2.328;2023-02-03T07:29:27;21.20;35.10
72576;DHT22;60613;48.658;2.328;2023-02-03T07:31:53;21.30;35.30
72576;DHT22;60613;48.658;2.328;2023-02-03T07:34:18;21.30;35.50
72576;DHT22;60613;48.658;2.328;2023-02-03T07:36:44;21.30;35.50
72576;DHT22;60613;48.658;2.328;2023-02-03T07:39:09;21.40;35.40
72576;DHT22;60613;48.658;2.328;2023-02-03T07:41:35;21.40;35.40
72576;DHT22;60613;48.658;2.328;2023-02-03T07:44:01;21.40;35.30
72576;DHT22;60613;48.658;2.328;2023-02-03T07:46:26;21.40;35.20
72576;DHT22;60613;48.658;2.328;2023-02-03T07:48:52;21.40;35.20
72576;DHT22;60613;48.658;2.328;2023-02-03T07:51:18;21.40;35.20
72576;DHT22;60613;48.658;2.328;2023-02-03T07:53:44;21.40;35.30
72576;DHT22;60613;48.658;2.328;2023-02-03T07:56:10;21.40;35.30
72576;DHT22;60613;48.658;2.328;2023-02-03T07:58:37;21.40;35.30
72576;DHT22;60613;48.658;2.328;2023-02-03T08:01:10;21.40;35.20
72576;DHT22;60613;48.658;2.328;2023-02-03T08:03:36;21.40;35.20
72576;DHT22;60613;48.658;2.328;2023-02-03T08:06:01;21.40;35.20
72576;DHT22;60613;48.658;2.328;2023-02-03T08:08:27;21.40;35.10
72576;DHT22;60613;48.658;2.328;2023-02-03T08:10:54;21.40;35.00
72576;DHT22;60613;48.658;2.328;2023-02-03T08:13:20;21.40;35.00
72576;DHT22;60613;48.658;2.328;2023-02-03T08:15:46;21.40;35.00
72576;DHT22;60613;48.658;2.328;2023-02-03T08:18:12;21.40;36.10
72576;DHT22;60613;48.658;2.328;2023-02-03T08:20:38;21.40;34.90
72576;DHT22;60613;48.658;2.328;2023-02-03T08:23:03;21.40;34.90
72576;DHT22;60613;48.658;2.328;2023-02-03T08:25:29;21.40;36.00
72576;DHT22;60613;48.658;2.328;2023-02-03T08:27:55;21.40;34.70
72576;DHT22;60613;48.658;2.328;2023-02-03T08:30:21;21.50;34.80
72576;DHT22;60613;48.658;2.328;2023-02-03T08:32:46;21.50;34.70
72576;DHT22;60613;48.658;2.328;2023-02-03T08:35:12;21.50;34.60
72576;DHT22;60613;48.658;2.328;2023-02-03T08:37:37;21.50;34.50
72576;DHT22;60613;48.658;2.328;2023-02-03T08:40:04;21.50;34.50
72576;DHT22;60613;48.658;2.328;2023-02-03T08:42:30;21.50;34.40
72576;DHT22;60613;48.658;2.328;2023-02-03T08:44:56;21.50;34.40
72576;DHT22;60613;48.658;2.328;2023-02-03T08:47:22;21.50;34.30
72576;DHT22;60613;48.658;2.328;2023-02-03T08:49:47;21.60;34.20
72576;DHT22;60613;48.658;2.328;2023-02-03T08:52:13;21.60;34.10
72576;DHT22;60613;48.658;2.328;2023-02-03T08:54:39;21.60;34.10
72576;DHT22;60613;48.658;2.328;2023-02-03T08:57:05;21.60;34.10
72576;DHT22;60613;48.658;2.328;2023-02-03T08:59:32;21.60;34.00
72576;DHT22;60613;48.658;2.328;2023-02-03T09:02:04;21.60;33.90
72576;DHT22;60613;48.658;2.328;2023-02-03T09:04:30;21.60;34.00
72576;DHT22;60613;48.658;2.328;2023-02-03T09:06:58;21.60;34.20
72576;DHT22;60613;48.658;2.328;2023-02-03T09:09:24;21.60;34.50
72576;DHT22;60613;48.658;2.328;2023-02-03T09:11:51;21.70;34.30
72576;DHT22;60613;48.658;2.328;2023-02-03T09:14:17;21.60;34.30
72576;DHT22;60613;48.658;2.328;2023-02-03T09:16:43;21.60;34.40
72576;DHT22;60613;48.658;2.328;2023-02-03T09:19:08;21.60;34.40
72576;DHT22;60613;48.658;2.328;2023-02-03T09:21:34;21.60;34.40
72576;DHT22;60613;48.658;2.328;2023-02-03T09:24:00;21.60;34.30
72576;DHT22;60613;48.658;2.328;2023-02-03T09:26:26;21.60;34.20
72576;DHT22;60613;48.658;2.328;2023-02-03T09:28:52;21.70;34.30
72576;DHT22;60613;48.658;2.328;2023-02-03T09:31:18;21.70;34.30
72576;DHT22;60613;48.658;2.328;2023-02-03T09:33:44;21.70;34.20
72576;DHT22;60613;48.658;2.328;2023-02-03T09:36:10;21.70;34.50
72576;DHT22;60613;48.658;2.328;2023-02-03T09:38:36;21.70;34.60
72576;DHT22;60613;48.658;2.328;2023-02-03T09:43:36;21.70;35.40
72576;DHT22;60613;48.658;2.328;2023-02-03T09:46:15;21.70;35.50
72576;DHT22;60613;48.658;2.328;2023-02-03T09:48:46;21.70;35.60
72576;DHT22;60613;48.658;2.328;2023-02-03T09:51:28;21.70;35.40
72576;DHT22;60613;48.658;2.328;2023-02-03T09:54:19;21.70;35.40
72576;DHT22;60613;48.658;2.328;2023-02-03T09:56:46;21.70;35.50
72576;DHT22;60613;48.658;2.328;2023-02-03T09:59:17;21.70;35.10
72576;DHT22;60613;48.658;2.328;2023-02-03T10:01:57;21.70;35.00
72576;DHT22;60613;48.658;2.328;2023-02-03T10:04:36;21.70;34.80
72576;DHT22;60613;48.658;2.328;2023-02-03T10:07:27;21.70;34.80
72576;DHT22;60613;48.658;2.328;2023-02-03T10:13:01;21.70;35.80
72576;DHT22;60613;48.658;2.328;2023-02-03T10:15:51;21.60;34.90
72576;DHT22;60613;48.658;2.328;2023-02-03T10:18:23;21.70;34.80
72576;DHT22;60613;48.658;2.328;2023-02-03T10:20:57;21.70;34.70
72576;DHT22;60613;48.658;2.328;2023-02-03T10:23:35;21.70;34.60
72576;DHT22;60613;48.658;2.328;2023-02-03T10:26:25;21.70;34.40
72576;DHT22;60613;48.658;2.328;2023-02-03T10:28:54;21.70;34.30
72576;DHT22;60613;48.658;2.328;2023-02-03T10:31:23;21.70;34.40
72576;DHT22;60613;48.658;2.328;2023-02-03T10:33:57;21.70;34.30
72576;DHT22;60613;48.658;2.328;2023-02-03T10:36:35;21.70;34.30
72576;DHT22;60613;48.658;2.328;2023-02-03T10:39:33;21.70;34.30
72576;DHT22;60613;48.658;2.328;2023-02-03T10:42:02;21.70;34.30
72576;DHT22;60613;48.658;2.328;2023-02-03T10:44:48;21.70;34.30
72576;DHT22;60613;48.658;2.328;2023-02-03T10:47:24;21.70;34.30
72576;DHT22;60613;48.658;2.328;2023-02-03T10:49:53;21.70;34.40
72576;DHT22;60613;48.658;2.328;2023-02-03T10:52:31;21.70;34.30
72576;DHT22;60613;48.658;2.328;2023-02-03T10:54:58;21.70;34.30
72576;DHT22;60613;48.658;2.328;2023-02-03T10:57:26;21.70;34.40
72576;DHT22;60613;48.658;2.328;2023-02-03T11:00:04;21.70;34.70
72576;DHT22;60613;48.658;2.328;2023-02-03T11:02:31;21.70;34.80
72576;DHT22;60613;48.658;2.328;2023-02-03T11:07:43;21.70;34.80
72576;DHT22;60613;48.658;2.328;2023-02-03T11:10:28;21.70;34.90
72576;DHT22;60613;48.658;2.328;2023-02-03T11:13:23;21.70;35.00
72576;DHT22;60613;48.658;2.328;2023-02-03T11:16:19;21.70;34.90
72576;DHT22;60613;48.658;2.328;2023-02-03T11:21:45;21.70;35.00
72576;DHT22;60613;48.658;2.328;2023-02-03T11:24:24;21.60;35.20
72576;DHT22;60613;48.658;2.328;2023-02-03T11:26:57;21.70;35.60
72576;DHT22;60613;48.658;2.328;2023-02-03T11:29:25;21.70;35.60
72576;DHT22;60613;48.658;2.328;2023-02-03T11:31:54;21.70;35.70
72576;DHT22;60613;48.658;2.328;2023-02-03T11:34:31;21.70;36.10
72576;DHT22;60613;48.658;2.328;2023-02-03T11:39:50;21.80;35.90
72576;DHT22;60613;48.658;2.328;2023-02-03T11:42:23;21.80;35.90
72576;DHT22;60613;48.658;2.328;2023-02-03T11:44:49;21.80;36.10
72576;DHT22;60613;48.658;2.328;2023-02-03T11:47:16;21.80;36.10
72576;DHT22;60613;48.658;2.328;2023-02-03T12:05:52;21.80;36.40
72576;DHT22;60613;48.658;2.328;2023-02-03T12:08:32;21.80;36.60
72576;DHT22;60613;48.658;2.328;2023-02-03T12:17:11;21.80;36.50
72576;DHT22;60613;48.658;2.328;2023-02-03T12:28:53;21.80;36.80
72576;DHT22;60613;48.658;2.328;2023-02-03T12:31:39;21.80;36.50
72576;DHT22;60613;48.658;2.328;2023-02-03T12:42:23;21.80;37.60
72576;DHT22;60613;48.658;2.328;2023-02-03T12:45:16;21.80;37.30
72576;DHT22;60613;48.658;2.328;2023-02-03T12:48:05;21.90;37.80
72576;DHT22;60613;48.658;2.328;2023-02-03T12:50:38;21.90;37.40
72576;DHT22;60613;48.658;2.328;2023-02-03T12:55:46;21.90;37.20
72576;DHT22;60613;48.658;2.328;2023-02-03T13:01:24;21.90;37.20
72576;DHT22;60613;48.658;2.328;2023-02-03T13:04:08;21.90;37.20
72576;DHT22;60613;48.658;2.328;2023-02-03T13:07:06;22.00;38.30
72576;DHT22;60613;48.658;2.328;2023-02-03T13:09:38;22.00;36.90
72576;DHT22;60613;48.658;2.328;2023-02-03T13:12:14;22.00;37.00
72576;DHT22;60613;48.658;2.328;2023-02-03T13:17:20;22.00;36.80
72576;DHT22;60613;48.658;2.328;2023-02-03T13:20:04;22.10;37.00
72576;DHT22;60613;48.658;2.328;2023-02-03T13:22:31;22.10;36.90
72576;DHT22;60613;48.658;2.328;2023-02-03T13:25:08;22.10;37.90
72576;DHT22;60613;48.658;2.328;2023-02-03T13:33:11;22.10;36.50
72576;DHT22;60613;48.658;2.328;2023-02-03T13:35:46;22.10;36.50
72576;DHT22;60613;48.658;2.328;2023-02-03T13:38:37;22.10;36.40
72576;DHT22;60613;48.658;2.328;2023-02-03T13:41:25;22.10;36.20
72576;DHT22;60613;48.658;2.328;2023-02-03T13:43:56;22.10;36.10
72576;DHT22;60613;48.658;2.328;2023-02-03T13:46:28;22.20;36.20
72576;DHT22;60613;48.658;2.328;2023-02-03T13:48:58;22.20;36.00
72576;DHT22;60613;48.658;2.328;2023-02-03T13:51:31;22.10;36.00
72576;DHT22;60613;48.658;2.328;2023-02-03T13:54:07;22.20;36.10
72576;DHT22;60613;48.658;2.328;2023-02-03T13:56:38;22.20;36.00
72576;DHT22;60613;48.658;2.328;2023-02-03T14:01:39;22.20;35.80
72576;DHT22;60613;48.658;2.328;2023-02-03T14:04:07;22.20;35.80
72576;DHT22;60613;48.658;2.328;2023-02-03T14:12:20;22.20;35.50
72576;DHT22;60613;48.658;2.328;2023-02-03T14:25:20;22.10;35.80
72576;DHT22;60613;48.658;2.328;2023-02-03T14:27:47;22.10;35.60
72576;DHT22;60613;48.658;2.328;2023-02-03T14:30:23;22.20;35.70
72576;DHT22;60613;48.658;2.328;2023-02-03T14:32:55;22.20;35.60
72576;DHT22;60613;48.658;2.328;2023-02-03T14:35:38;22.10;35.60
72576;DHT22;60613;48.658;2.328;2023-02-03T14:38:12;22.10;35.50
72576;DHT22;60613;48.658;2.328;2023-02-03T14:40:52;22.20;35.50
72576;DHT22;60613;48.658;2.328;2023-02-03T15:00:06;22.20;35.80
72576;DHT22;60613;48.658;2.328;2023-02-03T15:02:33;22.10;35.70
72576;DHT22;60613;48.658;2.328;2023-02-03T15:07:46;22.10;35.70
72576;DHT22;60613;48.658;2.328;2023-02-03T15:10:19;22.20;35.60
72576;DHT22;60613;48.658;2.328;2023-02-03T15:12:47;22.20;35.60
72576;DHT22;60613;48.658;2.328;2023-02-03T15:15:27;22.20;35.60
72576;DHT22;60613;48.658;2.328;2023-02-03T15:17:58;22.20;35.60
72576;DHT22;60613;48.658;2.328;2023-02-03T15:20:40;22.20;35.60
72576;DHT22;60613;48.658;2.328;2023-02-03T15:23:27;22.10;35.60
72576;DHT22;60613;48.658;2.328;2023-02-03T15:25:55;22.10;36.00
72576;DHT22;60613;48.658;2.328;2023-02-03T15:28:22;22.10;35.80
72576;DHT22;60613;48.658;2.328;2023-02-03T15:30:57;22.20;35.70
72576;DHT22;60613;48.658;2.328;2023-02-03T15:33:23;22.20;35.50
72576;DHT22;60613;48.658;2.328;2023-02-03T15:35:54;22.20;35.40
72576;DHT22;60613;48.658;2.328;2023-02-03T15:38:28;22.20;35.40
72576;DHT22;60613;48.658;2.328;2023-02-03T15:40:56;22.20;35.50
72576;DHT22;60613;48.658;2.328;2023-02-03T15:43:33;22.20;35.50
72576;DHT22;60613;48.658;2.328;2023-02-03T15:48:37;22.20;35.50
72576;DHT22;60613;48.658;2.328;2023-02-03T15:51:07;22.20;35.40
72576;DHT22;60613;48.658;2.328;2023-02-03T15:54:10;22.30;35.80
72576;DHT22;60613;48.658;2.328;2023-02-03T15:56:47;22.20;35.50
72576;DHT22;60613;48.658;2.328;2023-02-03T16:01:45;22.10;35.40
72576;DHT22;60613;48.658;2.328;2023-02-03T16:04:11;22.10;35.70
72576;DHT22;60613;48.658;2.328;2023-02-03T16:06:38;22.20;35.60
72576;DHT22;60613;48.658;2.328;2023-02-03T16:09:06;22.20;35.30
72576;DHT22;60613;48.658;2.328;2023-02-03T16:11:38;22.20;35.30
72576;DHT22;60613;48.658;2.328;2023-02-03T16:14:09;22.20;35.20
72576;DHT22;60613;48.658;2.328;2023-02-03T16:16:44;22.20;35.30
72576;DHT22;60613;48.658;2.328;2023-02-03T16:19:19;22.20;35.20
72576;DHT22;60613;48.658;2.328;2023-02-03T16:24:35;22.20;35.20
72576;DHT22;60613;48.658;2.328;2023-02-03T16:27:30;22.10;35.30
72576;DHT22;60613;48.658;2.328;2023-02-03T16:35:48;22.00;35.40
72576;DHT22;60613;48.658;2.328;2023-02-03T16:38:32;22.00;35.40
72576;DHT22;60613;48.658;2.328;2023-02-03T16:41:16;22.00;35.60
72576;DHT22;60613;48.658;2.328;2023-02-03T16:44:01;22.00;35.60
72576;DHT22;60613;48.658;2.328;2023-02-03T16:46:46;21.90;35.40
72576;DHT22;60613;48.658;2.328;2023-02-03T16:49:30;22.00;35.40
72576;DHT22;60613;48.658;2.328;2023-02-03T16:52:14;22.00;35.40
72576;DHT22;60613;48.658;2.328;2023-02-03T16:54:40;22.00;35.40
72576;DHT22;60613;48.658;2.328;2023-02-03T16:57:06;22.00;35.40
72576;DHT22;60613;48.658;2.328;2023-02-03T16:59:31;22.00;35.40
72576;DHT22;60613;48.658;2.328;2023-02-03T17:01:57;22.00;35.40
72576;DHT22;60613;48.658;2.328;2023-02-03T17:04:22;22.00;35.40
72576;DHT22;60613;48.658;2.328;2023-02-03T17:06:48;22.00;35.40
72576;DHT22;60613;48.658;2.328;2023-02-03T17:09:16;22.00;35.50
72576;DHT22;60613;48.658;2.328;2023-02-03T17:11:47;22.00;35.50
72576;DHT22;60613;48.658;2.328;2023-02-03T17:14:13;22.00;35.50
72576;DHT22;60613;48.658;2.328;2023-02-03T17:16:38;21.90;35.40
72576;DHT22;60613;48.658;2.328;2023-02-03T17:19:04;22.00;35.50
72576;DHT22;60613;48.658;2.328;2023-02-03T17:21:30;22.00;35.50
72576;DHT22;60613;48.658;2.328;2023-02-03T17:23:57;22.00;35.50
72576;DHT22;60613;48.658;2.328;2023-02-03T17:26:23;22.00;35.60
72576;DHT22;60613;48.658;2.328;2023-02-03T17:28:48;22.10;35.50
72576;DHT22;60613;48.658;2.328;2023-02-03T17:31:17;22.10;35.50
72576;DHT22;60613;48.658;2.328;2023-02-03T17:33:43;22.10;35.60
72576;DHT22;60613;48.658;2.328;2023-02-03T17:36:14;22.10;35.70
72576;DHT22;60613;48.658;2.328;2023-02-03T17:38:44;22.10;35.70
72576;DHT22;60613;48.658;2.328;2023-02-03T17:41:12;22.20;35.60
72576;DHT22;60613;48.658;2.328;2023-02-03T17:43:38;22.20;35.60
72576;DHT22;60613;48.658;2.328;2023-02-03T17:46:04;22.20;35.60
72576;DHT22;60613;48.658;2.328;2023-02-03T17:48:30;22.20;35.60
72576;DHT22;60613;48.658;2.328;2023-02-03T17:51:07;22.20;35.60
72576;DHT22;60613;48.658;2.328;2023-02-03T17:53:34;22.20;35.60
72576;DHT22;60613;48.658;2.328;2023-02-03T17:56:09;22.20;35.50
72576;DHT22;60613;48.658;2.328;2023-02-03T17:58:35;22.20;35.60
72576;DHT22;60613;48.658;2.328;2023-02-03T18:01:13;22.20;35.60
72576;DHT22;60613;48.658;2.328;2023-02-03T18:03:44;22.20;35.50
72576;DHT22;60613;48.658;2.328;2023-02-03T18:06:11;22.20;35.40
72576;DHT22;60613;48.658;2.328;2023-02-03T18:08:37;22.30;35.40
72576;DHT22;60613;48.658;2.328;2023-02-03T18:11:03;22.20;35.30
72576;DHT22;60613;48.658;2.328;2023-02-03T18:13:29;22.20;35.40
72576;DHT22;60613;48.658;2.328;2023-02-03T18:15:58;22.20;35.40
72576;DHT22;60613;48.658;2.328;2023-02-03T18:18:23;22.20;35.50
72576;DHT22;60613;48.658;2.328;2023-02-03T18:20:50;22.30;36.70
72576;DHT22;60613;48.658;2.328;2023-02-03T18:23:16;22.30;35.50
72576;DHT22;60613;48.658;2.328;2023-02-03T18:25:44;22.30;35.50
72576;DHT22;60613;48.658;2.328;2023-02-03T18:28:09;22.30;35.50
72576;DHT22;60613;48.658;2.328;2023-02-03T18:30:35;22.30;35.50
72576;DHT22;60613;48.658;2.328;2023-02-03T18:33:01;22.30;35.50
72576;DHT22;60613;48.658;2.328;2023-02-03T18:35:28;22.30;35.60
72576;DHT22;60613;48.658;2.328;2023-02-03T18:37:54;22.20;35.60
72576;DHT22;60613;48.658;2.328;2023-02-03T18:40:20;22.20;35.70
72576;DHT22;60613;48.658;2.328;2023-02-03T18:42:45;22.20;35.70
72576;DHT22;60613;48.658;2.328;2023-02-03T18:45:11;22.20;35.80
72576;DHT22;60613;48.658;2.328;2023-02-03T18:47:37;22.20;35.90
72576;DHT22;60613;48.658;2.328;2023-02-03T18:50:03;22.10;35.90
72576;DHT22;60613;48.658;2.328;2023-02-03T18:52:29;22.10;35.90
72576;DHT22;60613;48.658;2.328;2023-02-03T18:54:54;22.10;35.90
72576;DHT22;60613;48.658;2.328;2023-02-03T18:57:20;22.10;36.00
72576;DHT22;60613;48.658;2.328;2023-02-03T18:59:47;22.10;36.00
72576;DHT22;60613;48.658;2.328;2023-02-03T19:02:13;22.10;36.00
72576;DHT22;60613;48.658;2.328;2023-02-03T19:04:38;22.10;36.00
72576;DHT22;60613;48.658;2.328;2023-02-03T19:07:04;22.10;36.10
72576;DHT22;60613;48.658;2.328;2023-02-03T19:09:30;22.10;36.10
72576;DHT22;60613;48.658;2.328;2023-02-03T19:11:55;22.10;36.10
72576;DHT22;60613;48.658;2.328;2023-02-03T19:14:23;22.10;36.20
72576;DHT22;60613;48.658;2.328;2023-02-03T19:16:50;22.10;36.30
72576;DHT22;60613;48.658;2.328;2023-02-03T19:19:18;22.00;36.20
72576;DHT22;60613;48.658;2.328;2023-02-03T19:21:44;22.10;36.40
72576;DHT22;60613;48.658;2.328;2023-02-03T19:24:13;22.10;36.30
72576;DHT22;60613;48.658;2.328;2023-02-03T19:26:39;22.10;36.40
72576;DHT22;60613;48.658;2.328;2023-02-03T19:29:04;22.00;36.30
72576;DHT22;60613;48.658;2.328;2023-02-03T19:31:30;22.00;36.20
72576;DHT22;60613;48.658;2.328;2023-02-03T19:33:59;22.00;36.20
72576;DHT22;60613;48.658;2.328;2023-02-03T19:36:29;22.10;36.40
72576;DHT22;60613;48.658;2.328;2023-02-03T19:38:55;22.10;36.30
72576;DHT22;60613;48.658;2.328;2023-02-03T19:41:21;22.10;36.30
72576;DHT22;60613;48.658;2.328;2023-02-03T19:43:47;22.10;36.20
72576;DHT22;60613;48.658;2.328;2023-02-03T19:46:16;22.10;36.20
72576;DHT22;60613;48.658;2.328;2023-02-03T19:48:42;22.10;37.60
72576;DHT22;60613;48.658;2.328;2023-02-03T19:51:08;22.00;36.30
72576;DHT22;60613;48.658;2.328;2023-02-03T19:53:35;22.00;36.30
72576;DHT22;60613;48.658;2.328;2023-02-03T19:56:01;22.00;36.30
72576;DHT22;60613;48.658;2.328;2023-02-03T19:58:26;22.00;36.30
72576;DHT22;60613;48.658;2.328;2023-02-03T20:00:52;22.00;36.30
72576;DHT22;60613;48.658;2.328;2023-02-03T20:03:18;22.00;36.40
72576;DHT22;60613;48.658;2.328;2023-02-03T20:05:44;22.00;36.50
72576;DHT22;60613;48.658;2.328;2023-02-03T20:08:10;22.00;36.50
72576;DHT22;60613;48.658;2.328;2023-02-03T20:10:39;22.00;36.50
72576;DHT22;60613;48.658;2.328;2023-02-03T20:13:05;22.00;36.60
72576;DHT22;60613;48.658;2.328;2023-02-03T20:15:31;22.00;36.70
72576;DHT22;60613;48.658;2.328;2023-02-03T20:17:57;21.90;36.70
72576;DHT22;60613;48.658;2.328;2023-02-03T20:20:23;22.00;36.70
72576;DHT22;60613;48.658;2.328;2023-02-03T20:22:48;22.00;36.70
72576;DHT22;60613;48.658;2.328;2023-02-03T20:25:14;21.90;36.70
72576;DHT22;60613;48.658;2.328;2023-02-03T20:27:41;22.00;36.80
72576;DHT22;60613;48.658;2.328;2023-02-03T20:30:07;22.00;36.80
72576;DHT22;60613;48.658;2.328;2023-02-03T20:32:32;21.90;36.80
72576;DHT22;60613;48.658;2.328;2023-02-03T20:34:58;22.00;36.80
72576;DHT22;60613;48.658;2.328;2023-02-03T20:37:24;22.00;36.80
72576;DHT22;60613;48.658;2.328;2023-02-03T20:39:50;22.00;36.80
72576;DHT22;60613;48.658;2.328;2023-02-03T20:42:16;22.00;36.70
72576;DHT22;60613;48.658;2.328;2023-02-03T20:44:42;22.00;36.70
72576;DHT22;60613;48.658;2.328;2023-02-03T20:47:13;22.00;36.60
72576;DHT22;60613;48.658;2.328;2023-02-03T20:49:39;22.00;36.50
72576;DHT22;60613;48.658;2.328;2023-02-03T20:52:16;22.00;36.50
72576;DHT22;60613;48.658;2.328;2023-02-03T20:54:42;22.00;36.50
72576;DHT22;60613;48.658;2.328;2023-02-03T20:57:14;22.00;36.50
72576;DHT22;60613;48.658;2.328;2023-02-03T20:59:41;22.10;36.40
72576;DHT22;60613;48.658;2.328;2023-02-03T21:02:18;22.10;36.20
72576;DHT22;60613;48.658;2.328;2023-02-03T21:04:47;22.10;36.20
72576;DHT22;60613;48.658;2.328;2023-02-03T21:07:23;22.20;36.10
72576;DHT22;60613;48.658;2.328;2023-02-03T21:09:51;22.20;36.00
72576;DHT22;60613;48.658;2.328;2023-02-03T21:12:17;22.20;35.90
72576;DHT22;60613;48.658;2.328;2023-02-03T21:14:45;22.30;35.80
72576;DHT22;60613;48.658;2.328;2023-02-03T21:19:39;22.30;35.80
72576;DHT22;60613;48.658;2.328;2023-02-03T21:22:26;22.30;35.80
72576;DHT22;60613;48.658;2.328;2023-02-03T21:24:57;22.30;35.80
72576;DHT22;60613;48.658;2.328;2023-02-03T21:27:31;22.30;35.70
72576;DHT22;60613;48.658;2.328;2023-02-03T21:30:41;22.20;35.60
72576;DHT22;60613;48.658;2.328;2023-02-03T21:32:47;22.20;35.60
72576;DHT22;60613;48.658;2.328;2023-02-03T21:35:28;22.20;35.70
72576;DHT22;60613;48.658;2.328;2023-02-03T21:37:57;22.20;35.80
72576;DHT22;60613;48.658;2.328;2023-02-03T21:40:28;22.10;35.80
72576;DHT22;60613;48.658;2.328;2023-02-03T21:42:54;22.10;35.80
72576;DHT22;60613;48.658;2.328;2023-02-03T21:45:40;22.10;36.00
72576;DHT22;60613;48.658;2.328;2023-02-03T21:48:36;22.10;36.10
72576;DHT22;60613;48.658;2.328;2023-02-03T21:51:24;22.10;36.00
72576;DHT22;60613;48.658;2.328;2023-02-03T21:53:58;22.10;36.00
72576;DHT22;60613;48.658;2.328;2023-02-03T21:56:43;22.20;36.00
72576;DHT22;60613;48.658;2.328;2023-02-03T21:59:18;22.20;36.00
